sensor_id;sensor_type;location;lat;lon;timestamp;temperature;humidity
13850;DHT22;6995;52.618;13.488;2023-04-30T00:02:20;8.50;99.90
13850;DHT22;6995;52.618;13.488;2023-04-30T00:04:46;8.40;99.90
13850;DHT22;6995;52.618;13.488;2023-04-30T00:07:11;8.40;99.90
13850;DHT22;6995;52.618;13.488;2023-04-30T00:09:37;8.40;99.90
13850;DHT22;6995;52.618;13.488;2023-04-30T00:12:03;8.30;99.90
13850;DHT22;6995;52.618;13.488;2023-04-30T00:14:28;8.30;99.90
13850;DHT22;6995;52.618;13.488;2023-04-30T00:16:54;8.20;99.90
13850;DHT22;6995;52.618;13.488;2023-04-30T00:19:19;8.10;99.90
13850;DHT22;6995;52.618;13.488;2023-04-30T00:21:45;8.10;99.90
13850;DHT22;6995;52.618;13.488;2023-04-30T00:24:12;8.10;99.90
13850;DHT22;6995;52.618;13.488;2023-04-30T00:26:37;7.90;99.90
13850;DHT22;6995;52.618;13.488;2023-04-30T00:29:03;7.90;99.90
13850;DHT22;6995;52.618;13.488;2023-04-30T00:31:29;7.80;99.90
13850;DHT22;6995;52.618;13.488;2023-04-30T00:33:54;7.80;99.90
13850;DHT22;6995;52.618;13.488;2023-04-30T00:36:20;7.70;99.90
13850;DHT22;6995;52.618;13.488;2023-04-30T00:38:45;7.60;99.90
13850;DHT22;6995;52.618;13.488;2023-04-30T00:41:11;7.50;99.90
13850;DHT22;6995;52.618;13.488;2023-04-30T00:43:37;7.40;99.90
13850;DHT22;6995;52.618;13.488;2023-04-30T00:46:03;7.30;99.90
13850;DHT22;6995;52.618;13.488;2023-04-30T00:48:30;7.30;99.90
13850;DHT22;6995;52.618;13.488;2023-04-30T00:50:56;7.30;99.90
13850;DHT22;6995;52.618;13.488;2023-04-30T00:53:22;7.20;99.90
13850;DHT22;6995;52.618;13.488;2023-04-30T00:55:47;7.20;99.90
13850;DHT22;6995;52.618;13.488;2023-04-30T00:58:14;7.10;99.90
13850;DHT22;6995;52.618;13.488;2023-04-30T01:00:49;7.10;99.90
13850;DHT22;6995;52.618;13.488;2023-04-30T01:03:15;7.10;99.90
13850;DHT22;6995;52.618;13.488;2023-04-30T01:05:40;7.00;99.90
13850;DHT22;6995;52.618;13.488;2023-04-30T01:08:07;7.00;99.90
13850;DHT22;6995;52.618;13.488;2023-04-30T01:13:38;7.00;99.90
13850;DHT22;6995;52.618;13.488;2023-04-30T01:16:27;6.90;99.90
13850;DHT22;6995;52.618;13.488;2023-04-30T01:19:03;6.80;99.90
13850;DHT22;6995;52.618;13.488;2023-04-30T01:21:30;6.80;99.90
13850;DHT22;6995;52.618;13.488;2023-04-30T01:24:37;6.70;99.90
13850;DHT22;6995;52.618;13.488;2023-04-30T01:29:41;6.60;99.90
13850;DHT22;6995;52.618;13.488;2023-04-30T01:32:09;6.60;99.90
13850;DHT22;6995;52.618;13.488;2023-04-30T01:34:35;6.60;99.90
13850;DHT22;6995;52.618;13.488;2023-04-30T01:37:19;6.60;99.90
13850;DHT22;6995;52.618;13.488;2023-04-30T01:42:25;6.60;99.90
13850;DHT22;6995;52.618;13.488;2023-04-30T01:45:21;6.50;99.90
13850;DHT22;6995;52.618;13.488;2023-04-30T01:48:12;6.50;99.90
13850;DHT22;6995;52.618;13.488;2023-04-30T01:50:51;6.50;99.90
13850;DHT22;6995;52.618;13.488;2023-04-30T01:53:23;6.40;99.90
13850;DHT22;6995;52.618;13.488;2023-04-30T01:56:01;6.40;99.90
13850;DHT22;6995;52.618;13.488;2023-04-30T01:58:29;6.40;99.90
13850;DHT22;6995;52.618;13.488;2023-04-30T02:00:55;6.40;99.90
13850;DHT22;6995;52.618;13.488;2023-04-30T02:03:20;6.30;99.90
13850;DHT22;6995;52.618;13.488;2023-04-30T02:05:46;6.30;99.90
13850;DHT22;6995;52.618;13.488;2023-04-30T02:08:12;6.40;99.90
13850;DHT22;6995;52.618;13.488;2023-04-30T02:10:38;6.30;99.90
13850;DHT22;6995;52.618;13.488;2023-04-30T02:13:04;6.30;99.90
13850;DHT22;6995;52.618;13.488;2023-04-30T02:15:29;6.30;99.90
13850;DHT22;6995;52.618;13.488;2023-04-30T02:17:55;6.30;99.90
13850;DHT22;6995;52.618;13.488;2023-04-30T02:20:21;6.30;99.90
13850;DHT22;6995;52.618;13.488;2023-04-30T02:22:46;6.20;99.90
13850;DHT22;6995;52.618;13.488;2023-04-30T02:25:28;6.20;99.90
13850;DHT22;6995;52.618;13.488;2023-04-30T02:27:54;6.20;99.90
13850;DHT22;6995;52.618;13.488;2023-04-30T02:30:20;6.10;99.90
13850;DHT22;6995;52.618;13.488;2023-04-30T02:32:45;6.10;99.90
13850;DHT22;6995;52.618;13.488;2023-04-30T02:35:12;6.10;99.90
13850;DHT22;6995;52.618;13.488;2023-04-30T02:37:37;6.00;99.90
13850;DHT22;6995;52.618;13.488;2023-04-30T02:40:03;5.90;99.90
13850;DHT22;6995;52.618;13.488;2023-04-30T02:42:29;5.80;99.90
13850;DHT22;6995;52.618;13.488;2023-04-30T02:44:55;5.80;99.90
13850;DHT22;6995;52.618;13.488;2023-04-30T02:47:20;5.80;99.90
13850;DHT22;6995;52.618;13.488;2023-04-30T02:49:46;5.80;99.90
13850;DHT22;6995;52.618;13.488;2023-04-30T02:52:11;5.80;99.90
13850;DHT22;6995;52.618;13.488;2023-04-30T02:54:37;5.80;99.90
13850;DHT22;6995;52.618;13.488;2023-04-30T02:57:03;5.70;99.90
13850;DHT22;6995;52.618;13.488;2023-04-30T02:59:28;5.70;99.90
13850;DHT22;6995;52.618;13.488;2023-04-30T03:01:54;5.70;99.90
13850;DHT22;6995;52.618;13.488;2023-04-30T03:04:20;5.70;99.90
13850;DHT22;6995;52.618;13.488;2023-04-30T03:06:45;5.60;99.90
13850;DHT22;6995;52.618;13.488;2023-04-30T03:09:11;5.60;99.90
13850;DHT22;6995;52.618;13.488;2023-04-30T03:11:36;5.50;99.90
13850;DHT22;6995;52.618;13.488;2023-04-30T03:14:03;5.40;99.90
13850;DHT22;6995;52.618;13.488;2023-04-30T03:16:29;5.30;99.90
13850;DHT22;6995;52.618;13.488;2023-04-30T03:18:55;5.30;99.90
13850;DHT22;6995;52.618;13.488;2023-04-30T03:21:21;5.30;99.90
13850;DHT22;6995;52.618;13.488;2023-04-30T03:23:47;5.30;99.90
13850;DHT22;6995;52.618;13.488;2023-04-30T03:26:13;5.30;99.90
13850;DHT22;6995;52.618;13.488;2023-04-30T03:28:39;5.20;99.90
13850;DHT22;6995;52.618;13.488;2023-04-30T03:31:04;5.20;99.90
13850;DHT22;6995;52.618;13.488;2023-04-30T03:33:31;5.20;99.90
13850;DHT22;6995;52.618;13.488;2023-04-30T03:35:57;5.20;99.90
13850;DHT22;6995;52.618;13.488;2023-04-30T03:38:22;5.20;99.90
13850;DHT22;6995;52.618;13.488;2023-04-30T03:40:48;5.10;99.90
13850;DHT22;6995;52.618;13.488;2023-04-30T03:43:14;5.10;99.90
13850;DHT22;6995;52.618;13.488;2023-04-30T03:45:40;5.20;99.90
13850;DHT22;6995;52.618;13.488;2023-04-30T03:48:05;5.10;99.90
13850;DHT22;6995;52.618;13.488;2023-04-30T03:50:31;5.10;99.90
13850;DHT22;6995;52.618;13.488;2023-04-30T03:52:56;5.10;99.90
13850;DHT22;6995;52.618;13.488;2023-04-30T03:55:22;5.10;99.90
13850;DHT22;6995;52.618;13.488;2023-04-30T03:57:48;5.10;99.90
13850;DHT22;6995;52.618;13.488;2023-04-30T04:00:14;5.10;99.90
13850;DHT22;6995;52.618;13.488;2023-04-30T04:02:40;5.20;99.90
13850;DHT22;6995;52.618;13.488;2023-04-30T04:05:05;5.20;99.90
13850;DHT22;6995;52.618;13.488;2023-04-30T04:07:32;5.20;99.90
13850;DHT22;6995;52.618;13.488;2023-04-30T04:09:57;5.20;99.90
13850;DHT22;6995;52.618;13.488;2023-04-30T04:12:23;5.20;99.90
13850;DHT22;6995;52.618;13.488;2023-04-30T04:14:49;5.20;99.90
13850;DHT22;6995;52.618;13.488;2023-04-30T04:17:14;5.20;99.90
13850;DHT22;6995;52.618;13.488;2023-04-30T04:19:40;5.20;99.90
13850;DHT22;6995;52.618;13.488;2023-04-30T04:22:06;5.20;99.90
13850;DHT22;6995;52.618;13.488;2023-04-30T04:24:32;5.20;99.90
13850;DHT22;6995;52.618;13.488;2023-04-30T04:26:58;5.20;99.90
13850;DHT22;6995;52.618;13.488;2023-04-30T04:29:24;5.20;99.90
13850;DHT22;6995;52.618;13.488;2023-04-30T04:31:50;5.20;99.90
13850;DHT22;6995;52.618;13.488;2023-04-30T04:34:16;5.20;99.90
13850;DHT22;6995;52.618;13.488;2023-04-30T04:36:42;5.30;99.90
13850;DHT22;6995;52.618;13.488;2023-04-30T04:39:07;5.30;99.90
13850;DHT22;6995;52.618;13.488;2023-04-30T04:41:33;5.30;99.90
13850;DHT22;6995;52.618;13.488;2023-04-30T04:44:00;5.30;99.90
13850;DHT22;6995;52.618;13.488;2023-04-30T04:46:30;5.40;99.90
13850;DHT22;6995;52.618;13.488;2023-04-30T04:48:56;5.40;99.90
13850;DHT22;6995;52.618;13.488;2023-04-30T04:51:22;5.50;99.90
13850;DHT22;6995;52.618;13.488;2023-04-30T04:53:47;5.50;99.90
13850;DHT22;6995;52.618;13.488;2023-04-30T04:56:13;5.60;99.90
13850;DHT22;6995;52.618;13.488;2023-04-30T04:58:43;5.60;99.90
13850;DHT22;6995;52.618;13.488;2023-04-30T05:01:08;5.70;99.90
13850;DHT22;6995;52.618;13.488;2023-04-30T05:03:34;5.60;99.90
13850;DHT22;6995;52.618;13.488;2023-04-30T05:06:02;5.80;99.90
13850;DHT22;6995;52.618;13.488;2023-04-30T05:08:32;5.80;99.90
13850;DHT22;6995;52.618;13.488;2023-04-30T05:10:58;5.70;99.90
13850;DHT22;6995;52.618;13.488;2023-04-30T05:13:23;5.80;99.90
13850;DHT22;6995;52.618;13.488;2023-04-30T05:15:51;5.80;99.90
13850;DHT22;6995;52.618;13.488;2023-04-30T05:18:17;5.80;99.90
13850;DHT22;6995;52.618;13.488;2023-04-30T05:20:42;5.90;99.90
13850;DHT22;6995;52.618;13.488;2023-04-30T05:23:08;6.00;99.90
13850;DHT22;6995;52.618;13.488;2023-04-30T05:25:35;6.00;99.90
13850;DHT22;6995;52.618;13.488;2023-04-30T05:28:01;6.10;99.90
13850;DHT22;6995;52.618;13.488;2023-04-30T05:30:27;6.20;99.90
13850;DHT22;6995;52.618;13.488;2023-04-30T05:32:53;6.30;99.90
13850;DHT22;6995;52.618;13.488;2023-04-30T05:35:19;6.30;99.90
13850;DHT22;6995;52.618;13.488;2023-04-30T05:37:45;6.40;99.90
13850;DHT22;6995;52.618;13.488;2023-04-30T05:40:11;6.40;99.90
13850;DHT22;6995;52.618;13.488;2023-04-30T05:42:37;6.50;99.90
13850;DHT22;6995;52.618;13.488;2023-04-30T05:45:05;6.50;99.90
13850;DHT22;6995;52.618;13.488;2023-04-30T05:47:31;6.70;99.90
13850;DHT22;6995;52.618;13.488;2023-04-30T05:49:57;6.80;99.90
13850;DHT22;6995;52.618;13.488;2023-04-30T05:52:23;6.80;99.90
13850;DHT22;6995;52.618;13.488;2023-04-30T05:54:48;7.00;99.90
13850;DHT22;6995;52.618;13.488;2023-04-30T05:57:15;7.00;99.90
13850;DHT22;6995;52.618;13.488;2023-04-30T05:59:40;7.10;99.90
13850;DHT22;6995;52.618;13.488;2023-04-30T06:02:06;7.30;99.90
13850;DHT22;6995;52.618;13.488;2023-04-30T06:04:31;7.30;99.90
13850;DHT22;6995;52.618;13.488;2023-04-30T06:06:57;7.10;99.90
13850;DHT22;6995;52.618;13.488;2023-04-30T06:09:23;7.20;99.90
13850;DHT22;6995;52.618;13.488;2023-04-30T06:11:48;7.20;99.90
13850;DHT22;6995;52.618;13.488;2023-04-30T06:14:15;7.30;99.90
13850;DHT22;6995;52.618;13.488;2023-04-30T06:16:42;7.30;99.90
13850;DHT22;6995;52.618;13.488;2023-04-30T06:19:08;7.30;99.90
13850;DHT22;6995;52.618;13.488;2023-04-30T06:21:34;7.30;99.90
13850;DHT22;6995;52.618;13.488;2023-04-30T06:24:00;7.40;99.90
13850;DHT22;6995;52.618;13.488;2023-04-30T06:26:26;7.70;99.90
13850;DHT22;6995;52.618;13.488;2023-04-30T06:28:51;7.80;99.90
13850;DHT22;6995;52.618;13.488;2023-04-30T06:31:17;7.90;99.90
13850;DHT22;6995;52.618;13.488;2023-04-30T06:33:43;7.90;99.90
13850;DHT22;6995;52.618;13.488;2023-04-30T06:36:08;8.00;99.90
13850;DHT22;6995;52.618;13.488;2023-04-30T06:38:34;8.10;99.90
13850;DHT22;6995;52.618;13.488;2023-04-30T06:41:00;8.30;99.90
13850;DHT22;6995;52.618;13.488;2023-04-30T06:43:26;8.60;99.90
13850;DHT22;6995;52.618;13.488;2023-04-30T06:45:51;8.50;99.90
13850;DHT22;6995;52.618;13.488;2023-04-30T06:48:17;8.40;99.90
13850;DHT22;6995;52.618;13.488;2023-04-30T06:50:42;8.50;99.90
13850;DHT22;6995;52.618;13.488;2023-04-30T06:53:13;8.60;99.90
13850;DHT22;6995;52.618;13.488;2023-04-30T06:55:40;8.60;99.90
13850;DHT22;6995;52.618;13.488;2023-04-30T06:58:06;8.40;99.90
13850;DHT22;6995;52.618;13.488;2023-04-30T07:00:32;8.50;99.90
13850;DHT22;6995;52.618;13.488;2023-04-30T07:02:58;8.50;99.90
13850;DHT22;6995;52.618;13.488;2023-04-30T07:05:27;8.70;99.90
13850;DHT22;6995;52.618;13.488;2023-04-30T07:07:53;8.90;99.90
13850;DHT22;6995;52.618;13.488;2023-04-30T07:10:19;9.20;99.90
13850;DHT22;6995;52.618;13.488;2023-04-30T07:12:44;9.30;99.90
13850;DHT22;6995;52.618;13.488;2023-04-30T07:15:10;9.30;99.90
13850;DHT22;6995;52.618;13.488;2023-04-30T07:17:36;9.50;99.90
13850;DHT22;6995;52.618;13.488;2023-04-30T07:20:03;9.30;99.90
13850;DHT22;6995;52.618;13.488;2023-04-30T07:22:51;9.10;99.90
13850;DHT22;6995;52.618;13.488;2023-04-30T07:25:18;9.30;99.90
13850;DHT22;6995;52.618;13.488;2023-04-30T07:27:46;9.10;99.90
13850;DHT22;6995;52.618;13.488;2023-04-30T07:30:12;9.10;99.90
13850;DHT22;6995;52.618;13.488;2023-04-30T07:32:38;9.30;99.90
13850;DHT22;6995;52.618;13.488;2023-04-30T07:35:05;9.30;99.90
13850;DHT22;6995;52.618;13.488;2023-04-30T07:37:33;9.60;99.90
13850;DHT22;6995;52.618;13.488;2023-04-30T07:40:02;9.70;99.90
13850;DHT22;6995;52.618;13.488;2023-04-30T07:42:31;9.80;99.90
13850;DHT22;6995;52.618;13.488;2023-04-30T07:44:56;9.60;99.90
13850;DHT22;6995;52.618;13.488;2023-04-30T07:47:25;9.90;99.90
13850;DHT22;6995;52.618;13.488;2023-04-30T07:49:51;10.10;99.90
13850;DHT22;6995;52.618;13.488;2023-04-30T07:52:17;10.10;99.90
13850;DHT22;6995;52.618;13.488;2023-04-30T07:54:42;10.10;99.90
13850;DHT22;6995;52.618;13.488;2023-04-30T07:57:08;10.00;99.90
13850;DHT22;6995;52.618;13.488;2023-04-30T07:59:34;10.00;99.90
13850;DHT22;6995;52.618;13.488;2023-04-30T08:02:00;9.80;99.90
13850;DHT22;6995;52.618;13.488;2023-04-30T08:04:28;9.70;99.90
13850;DHT22;6995;52.618;13.488;2023-04-30T08:06:54;9.70;99.90
13850;DHT22;6995;52.618;13.488;2023-04-30T08:09:21;9.70;99.90
13850;DHT22;6995;52.618;13.488;2023-04-30T08:11:46;9.80;99.90
13850;DHT22;6995;52.618;13.488;2023-04-30T08:14:15;9.90;99.90
13850;DHT22;6995;52.618;13.488;2023-04-30T08:16:43;9.70;99.90
13850;DHT22;6995;52.618;13.488;2023-04-30T08:19:09;9.70;99.90
13850;DHT22;6995;52.618;13.488;2023-04-30T08:21:40;9.60;99.90
13850;DHT22;6995;52.618;13.488;2023-04-30T08:24:12;9.50;99.90
13850;DHT22;6995;52.618;13.488;2023-04-30T08:26:37;9.60;99.90
13850;DHT22;6995;52.618;13.488;2023-04-30T08:29:03;9.70;99.90
13850;DHT22;6995;52.618;13.488;2023-04-30T08:31:29;9.70;99.90
13850;DHT22;6995;52.618;13.488;2023-04-30T08:33:57;9.50;99.90
13850;DHT22;6995;52.618;13.488;2023-04-30T08:36:23;9.50;99.90
13850;DHT22;6995;52.618;13.488;2023-04-30T08:38:48;9.50;99.90
13850;DHT22;6995;52.618;13.488;2023-04-30T08:41:14;9.70;99.90
13850;DHT22;6995;52.618;13.488;2023-04-30T08:43:41;9.60;99.90
13850;DHT22;6995;52.618;13.488;2023-04-30T08:46:11;9.70;99.90
13850;DHT22;6995;52.618;13.488;2023-04-30T08:48:40;9.90;99.90
13850;DHT22;6995;52.618;13.488;2023-04-30T08:51:08;9.90;99.90
13850;DHT22;6995;52.618;13.488;2023-04-30T09:00:44;10.00;99.90
13850;DHT22;6995;52.618;13.488;2023-04-30T09:06:45;10.10;99.90
13850;DHT22;6995;52.618;13.488;2023-04-30T09:13:13;10.10;99.90
13850;DHT22;6995;52.618;13.488;2023-04-30T09:15:39;10.30;99.90
13850;DHT22;6995;52.618;13.488;2023-04-30T09:21:34;10.50;99.90
13850;DHT22;6995;52.618;13.488;2023-04-30T09:24:03;10.50;99.90
13850;DHT22;6995;52.618;13.488;2023-04-30T09:34:11;10.70;99.90
13850;DHT22;6995;52.618;13.488;2023-04-30T09:36:36;10.80;99.90
13850;DHT22;6995;52.618;13.488;2023-04-30T09:39:09;11.00;99.90
13850;DHT22;6995;52.618;13.488;2023-04-30T09:42:33;11.00;99.90
13850;DHT22;6995;52.618;13.488;2023-04-30T09:49:04;10.90;99.90
13850;DHT22;6995;52.618;13.488;2023-04-30T09:58:27;11.10;99.90
13850;DHT22;6995;52.618;13.488;2023-04-30T10:00:56;11.10;99.90
13850;DHT22;6995;52.618;13.488;2023-04-30T10:03:22;11.20;99.90
13850;DHT22;6995;52.618;13.488;2023-04-30T10:05:53;11.50;99.90
13850;DHT22;6995;52.618;13.488;2023-04-30T10:08:37;11.50;99.90
13850;DHT22;6995;52.618;13.488;2023-04-30T10:11:18;11.40;99.90
13850;DHT22;6995;52.618;13.488;2023-04-30T10:13:53;11.70;99.90
13850;DHT22;6995;52.618;13.488;2023-04-30T10:16:29;11.70;99.90
13850;DHT22;6995;52.618;13.488;2023-04-30T10:19:01;11.80;99.90
13850;DHT22;6995;52.618;13.488;2023-04-30T10:21:29;11.80;99.90
13850;DHT22;6995;52.618;13.488;2023-04-30T10:23:58;11.90;99.90
13850;DHT22;6995;52.618;13.488;2023-04-30T10:26:24;11.90;99.90
13850;DHT22;6995;52.618;13.488;2023-04-30T10:28:51;12.00;99.90
13850;DHT22;6995;52.618;13.488;2023-04-30T10:31:18;11.90;99.90
13850;DHT22;6995;52.618;13.488;2023-04-30T10:36:45;11.70;99.90
13850;DHT22;6995;52.618;13.488;2023-04-30T10:39:14;11.90;99.90
13850;DHT22;6995;52.618;13.488;2023-04-30T10:41:44;11.80;99.90
13850;DHT22;6995;52.618;13.488;2023-04-30T10:44:11;11.90;99.90
13850;DHT22;6995;52.618;13.488;2023-04-30T10:46:37;11.70;99.90
13850;DHT22;6995;52.618;13.488;2023-04-30T10:49:03;11.70;99.90
13850;DHT22;6995;52.618;13.488;2023-04-30T10:51:50;11.70;99.90
13850;DHT22;6995;52.618;13.488;2023-04-30T10:54:25;12.00;99.90
13850;DHT22;6995;52.618;13.488;2023-04-30T10:56:52;12.20;99.90
13850;DHT22;6995;52.618;13.488;2023-04-30T10:59:21;12.10;99.90
13850;DHT22;6995;52.618;13.488;2023-04-30T11:02:00;12.10;99.90
13850;DHT22;6995;52.618;13.488;2023-04-30T11:04:26;12.40;99.90
13850;DHT22;6995;52.618;13.488;2023-04-30T11:09:37;12.60;99.90
13850;DHT22;6995;52.618;13.488;2023-04-30T11:12:14;12.70;99.90
13850;DHT22;6995;52.618;13.488;2023-04-30T11:17:26;12.70;99.90
13850;DHT22;6995;52.618;13.488;2023-04-30T11:19:53;12.90;99.90
13850;DHT22;6995;52.618;13.488;2023-04-30T11:22:23;13.10;99.90
13850;DHT22;6995;52.618;13.488;2023-04-30T11:24:49;13.20;99.90
13850;DHT22;6995;52.618;13.488;2023-04-30T11:27:22;13.20;99.90
13850;DHT22;6995;52.618;13.488;2023-04-30T11:29:49;12.90;99.90
13850;DHT22;6995;52.618;13.488;2023-04-30T11:32:20;13.00;99.90
13850;DHT22;6995;52.618;13.488;2023-04-30T11:34:47;13.10;99.90
13850;DHT22;6995;52.618;13.488;2023-04-30T11:40:02;13.60;99.90
13850;DHT22;6995;52.618;13.488;2023-04-30T11:42:29;13.80;99.90
13850;DHT22;6995;52.618;13.488;2023-04-30T11:45:05;13.80;99.90
13850;DHT22;6995;52.618;13.488;2023-04-30T11:47:45;13.60;99.90
13850;DHT22;6995;52.618;13.488;2023-04-30T11:50:21;13.80;99.90
13850;DHT22;6995;52.618;13.488;2023-04-30T11:52:54;14.20;99.90
13850;DHT22;6995;52.618;13.488;2023-04-30T11:55:22;14.30;99.90
13850;DHT22;6995;52.618;13.488;2023-04-30T11:57:50;14.30;99.90
13850;DHT22;6995;52.618;13.488;2023-04-30T12:00:27;14.20;99.90
13850;DHT22;6995;52.618;13.488;2023-04-30T12:02:54;14.50;99.90
13850;DHT22;6995;52.618;13.488;2023-04-30T12:05:24;14.20;99.90
13850;DHT22;6995;52.618;13.488;2023-04-30T12:07:54;14.50;99.90
13850;DHT22;6995;52.618;13.488;2023-04-30T12:10:21;14.90;99.90
13850;DHT22;6995;52.618;13.488;2023-04-30T12:12:48;14.80;99.90
13850;DHT22;6995;52.618;13.488;2023-04-30T12:15:22;14.90;99.90
13850;DHT22;6995;52.618;13.488;2023-04-30T12:17:51;15.40;99.90
13850;DHT22;6995;52.618;13.488;2023-04-30T12:20:21;15.40;99.90
13850;DHT22;6995;52.618;13.488;2023-04-30T12:22:51;16.00;99.90
13850;DHT22;6995;52.618;13.488;2023-04-30T12:25:18;16.50;99.90
13850;DHT22;6995;52.618;13.488;2023-04-30T12:27:54;16.50;99.90
13850;DHT22;6995;52.618;13.488;2023-04-30T12:30:24;16.80;99.90
13850;DHT22;6995;52.618;13.488;2023-04-30T12:32:57;17.00;99.90
13850;DHT22;6995;52.618;13.488;2023-04-30T12:35:25;17.10;99.90
13850;DHT22;6995;52.618;13.488;2023-04-30T12:38:00;17.40;99.90
13850;DHT22;6995;52.618;13.488;2023-04-30T12:40:26;17.30;99.90
13850;DHT22;6995;52.618;13.488;2023-04-30T12:42:59;17.50;99.90
13850;DHT22;6995;52.618;13.488;2023-04-30T12:45:51;17.30;99.90
13850;DHT22;6995;52.618;13.488;2023-04-30T12:48:24;18.40;99.90
13850;DHT22;6995;52.618;13.488;2023-04-30T12:51:00;19.30;98.50
13850;DHT22;6995;52.618;13.488;2023-04-30T12:53:27;19.40;95.70
13850;DHT22;6995;52.618;13.488;2023-04-30T12:56:06;19.30;96.50
13850;DHT22;6995;52.618;13.488;2023-04-30T12:58:36;19.90;96.80
13850;DHT22;6995;52.618;13.488;2023-04-30T13:01:01;20.60;93.50
13850;DHT22;6995;52.618;13.488;2023-04-30T13:03:27;21.20;90.90
13850;DHT22;6995;52.618;13.488;2023-04-30T13:05:52;21.10;86.50
13850;DHT22;6995;52.618;13.488;2023-04-30T13:08:19;20.00;89.50
13850;DHT22;6995;52.618;13.488;2023-04-30T13:10:48;19.80;88.60
13850;DHT22;6995;52.618;13.488;2023-04-30T13:13:15;19.40;88.90
13850;DHT22;6995;52.618;13.488;2023-04-30T13:15:44;20.00;89.00
13850;DHT22;6995;52.618;13.488;2023-04-30T13:18:09;20.00;90.00
13850;DHT22;6995;52.618;13.488;2023-04-30T13:20:37;20.90;85.40
13850;DHT22;6995;52.618;13.488;2023-04-30T13:23:03;20.90;86.60
13850;DHT22;6995;52.618;13.488;2023-04-30T13:25:32;21.10;85.30
13850;DHT22;6995;52.618;13.488;2023-04-30T13:28:13;21.70;81.60
13850;DHT22;6995;52.618;13.488;2023-04-30T13:30:38;21.90;79.20
13850;DHT22;6995;52.618;13.488;2023-04-30T13:33:05;21.40;76.00
13850;DHT22;6995;52.618;13.488;2023-04-30T13:35:31;20.50;80.50
13850;DHT22;6995;52.618;13.488;2023-04-30T13:37:58;20.50;83.60
13850;DHT22;6995;52.618;13.488;2023-04-30T13:40:24;21.00;81.20
13850;DHT22;6995;52.618;13.488;2023-04-30T13:42:53;21.00;78.20
13850;DHT22;6995;52.618;13.488;2023-04-30T13:45:18;21.80;99.90
13850;DHT22;6995;52.618;13.488;2023-04-30T13:47:44;22.40;75.00
13850;DHT22;6995;52.618;13.488;2023-04-30T13:50:10;22.50;75.10
13850;DHT22;6995;52.618;13.488;2023-04-30T13:52:36;22.80;75.80
13850;DHT22;6995;52.618;13.488;2023-04-30T13:55:07;22.90;72.70
13850;DHT22;6995;52.618;13.488;2023-04-30T13:57:33;22.30;73.80
13850;DHT22;6995;52.618;13.488;2023-04-30T13:59:59;21.50;75.40
13850;DHT22;6995;52.618;13.488;2023-04-30T14:02:25;22.30;74.70
13850;DHT22;6995;52.618;13.488;2023-04-30T14:04:54;22.80;71.40
13850;DHT22;6995;52.618;13.488;2023-04-30T14:07:20;21.60;66.40
13850;DHT22;6995;52.618;13.488;2023-04-30T14:09:45;22.60;69.60
13850;DHT22;6995;52.618;13.488;2023-04-30T14:12:11;21.60;66.40
13850;DHT22;6995;52.618;13.488;2023-04-30T14:14:37;22.10;66.80
13850;DHT22;6995;52.618;13.488;2023-04-30T14:17:02;22.20;67.90
13850;DHT22;6995;52.618;13.488;2023-04-30T14:19:29;23.00;67.20
13850;DHT22;6995;52.618;13.488;2023-04-30T14:21:54;22.90;65.50
13850;DHT22;6995;52.618;13.488;2023-04-30T14:24:20;22.90;61.60
13850;DHT22;6995;52.618;13.488;2023-04-30T14:26:46;21.70;63.00
13850;DHT22;6995;52.618;13.488;2023-04-30T14:29:12;20.30;65.90
13850;DHT22;6995;52.618;13.488;2023-04-30T14:31:37;20.00;69.10
13850;DHT22;6995;52.618;13.488;2023-04-30T14:34:03;20.00;69.90
13850;DHT22;6995;52.618;13.488;2023-04-30T14:36:29;20.50;67.90
13850;DHT22;6995;52.618;13.488;2023-04-30T14:38:54;21.20;64.80
13850;DHT22;6995;52.618;13.488;2023-04-30T14:41:20;21.90;65.00
13850;DHT22;6995;52.618;13.488;2023-04-30T14:43:46;22.20;63.40
13850;DHT22;6995;52.618;13.488;2023-04-30T14:46:12;22.30;61.80
13850;DHT22;6995;52.618;13.488;2023-04-30T14:48:38;23.10;60.00
13850;DHT22;6995;52.618;13.488;2023-04-30T14:51:04;23.20;57.10
13850;DHT22;6995;52.618;13.488;2023-04-30T14:53:29;23.90;54.70
13850;DHT22;6995;52.618;13.488;2023-04-30T14:55:55;24.00;52.10
13850;DHT22;6995;52.618;13.488;2023-04-30T14:58:21;24.10;55.00
13850;DHT22;6995;52.618;13.488;2023-04-30T15:00:50;24.70;53.70
13850;DHT22;6995;52.618;13.488;2023-04-30T15:03:18;24.20;52.80
13850;DHT22;6995;52.618;13.488;2023-04-30T15:05:46;24.30;47.80
13850;DHT22;6995;52.618;13.488;2023-04-30T15:08:13;25.00;49.20
13850;DHT22;6995;52.618;13.488;2023-04-30T15:10:38;25.10;46.90
13850;DHT22;6995;52.618;13.488;2023-04-30T15:13:04;25.20;46.40
13850;DHT22;6995;52.618;13.488;2023-04-30T15:15:30;25.20;46.20
13850;DHT22;6995;52.618;13.488;2023-04-30T15:17:56;24.90;47.10
13850;DHT22;6995;52.618;13.488;2023-04-30T15:20:22;24.50;49.00
13850;DHT22;6995;52.618;13.488;2023-04-30T15:22:49;25.00;47.20
13850;DHT22;6995;52.618;13.488;2023-04-30T15:25:15;25.00;44.40
13850;DHT22;6995;52.618;13.488;2023-04-30T15:27:42;24.20;46.70
13850;DHT22;6995;52.618;13.488;2023-04-30T15:30:08;23.70;45.00
13850;DHT22;6995;52.618;13.488;2023-04-30T15:32:46;24.00;44.40
13850;DHT22;6995;52.618;13.488;2023-04-30T15:35:12;23.90;45.20
13850;DHT22;6995;52.618;13.488;2023-04-30T15:37:37;24.00;46.60
13850;DHT22;6995;52.618;13.488;2023-04-30T15:40:03;24.50;43.70
13850;DHT22;6995;52.618;13.488;2023-04-30T15:42:30;25.20;45.10
13850;DHT22;6995;52.618;13.488;2023-04-30T15:44:56;25.80;40.70
13850;DHT22;6995;52.618;13.488;2023-04-30T15:47:22;24.80;38.00
13850;DHT22;6995;52.618;13.488;2023-04-30T15:49:48;23.80;40.00
13850;DHT22;6995;52.618;13.488;2023-04-30T15:52:14;22.70;42.00
13850;DHT22;6995;52.618;13.488;2023-04-30T15:54:40;23.40;42.80
13850;DHT22;6995;52.618;13.488;2023-04-30T15:57:06;24.20;41.90
13850;DHT22;6995;52.618;13.488;2023-04-30T15:59:32;25.20;39.40
13850;DHT22;6995;52.618;13.488;2023-04-30T16:01:58;26.20;36.80
13850;DHT22;6995;52.618;13.488;2023-04-30T16:04:24;26.40;33.00
13850;DHT22;6995;52.618;13.488;2023-04-30T16:06:50;25.00;64.90
13850;DHT22;6995;52.618;13.488;2023-04-30T16:09:16;25.00;36.50
13850;DHT22;6995;52.618;13.488;2023-04-30T16:11:44;24.60;37.70
13850;DHT22;6995;52.618;13.488;2023-04-30T16:14:11;24.80;36.50
13850;DHT22;6995;52.618;13.488;2023-04-30T16:16:37;25.00;35.30
13850;DHT22;6995;52.618;13.488;2023-04-30T16:19:02;25.60;33.40
13850;DHT22;6995;52.618;13.488;2023-04-30T16:21:28;25.20;32.70
13850;DHT22;6995;52.618;13.488;2023-04-30T16:23:57;24.80;33.50
13850;DHT22;6995;52.618;13.488;2023-04-30T16:26:22;25.50;33.00
13850;DHT22;6995;52.618;13.488;2023-04-30T16:28:48;25.30;34.10
13850;DHT22;6995;52.618;13.488;2023-04-30T16:31:13;25.10;34.80
13850;DHT22;6995;52.618;13.488;2023-04-30T16:33:43;25.50;34.20
13850;DHT22;6995;52.618;13.488;2023-04-30T16:36:09;26.20;32.60
13850;DHT22;6995;52.618;13.488;2023-04-30T16:38:35;26.90;29.10
13850;DHT22;6995;52.618;13.488;2023-04-30T16:41:01;26.60;29.90